Tiempo atmosférico en la estación meteorológica de Pedraza de Alba, Salamanca (897 m.)



Fecha
DESCASC
Temp. máxima en grados centígrados (hora)
DESCASC
Temp. mínima en grados centígrados (hora)
DESCASC
Temp. media en grados centígrados
DESCASC
Racha de viento máxima en m/sg (hora)
DESCASC
Velocidad máxima media en intervalos de 10 minutos(hora)
DESCASC
Precipitaciones diarias en mm
DESCASC
Precipitaciones de 00:00 a 06:00 en mm
DESCASC
Precipitaciones de 06:00 a 12:00 en mm
DESCASC
Precipitaciones de 12:00 a 18:00 en mm
DESCASC
Precipitaciones de 18:00 a 24:00 en mm
DESCASC
22-08-2019 29.3 (17:50) 11.2 (07:30) 20.2 9.17 (13:30) 5.28 (13:20) 0 0 0 0 0
21-08-2019 28.6 (16:40) 10.4 (08:10) 19.5 12.22 (17:10) 7.22 (17:10) 0 0 0 0 0
20-08-2019 26.2 (18:10) 11.2 (07:50) 18.7 9.17 (17:40) 4.72 (14:40) 0 0 0 0 0
19-08-2019 22.7 (13:50) 13.2 (07:10) 18 7.22 (13:50) 4.17 (13:50) 0 0 0 0 0
18-08-2019 29.2 (16:50) 12 (00:00) 20.6 9.72 (16:40) 4.72 (17:30) 0 0 0 0 0
17-08-2019 33.6 (17:40) 12.2 (00:00) 22.9 9.72 (17:20) 4.72 (16:30) 0 0 0 0 0
16-08-2019 32.6 (17:30) 14.1 (00:00) 23.3 12.22 (16:30) 4.44 (18:40) 0 0 0 0 0
15-08-2019 30.7 (17:20) 13.4 (00:00) 22.1 7.22 (15:00) 3.89 (18:50) 0 0 0 0 0
14-08-2019 30.3 (18:10) 9.3 (00:00) 19.8 7.22 (16:00) 3.89 (20:10) 0 0 0 0 0
13-08-2019 25.5 (17:10) 8.9 (00:00) 17.2 7.78 (12:30) 4.44 (12:20) 0 0 0 0 0
12-08-2019 22.2 (18:30) 5.2 (00:00) 13.7 8.89 (13:50) 4.44 (14:10) 0 0 0 0 0
11-08-2019 22.1 (17:00) 11 (00:00) 16.6 9.44 (19:50) 4.17 (15:50) 0.4 0.4 0 0 0
10-08-2019 26.7 (18:30) 10 (00:00) 18.4 7.22 (19:20) 4.17 (19:20) 0 0 0 0 0
09-08-2019 23.1 (12:40) 14.2 (00:00) 18.7 15.56 (12:30) 8.61 (12:30) 2.4 0 0 1.2 1.2
08-08-2019 29.4 (17:30) 17.6 (00:00) 23.5 12.78 (17:50) 7.5 (15:50) 0 0 0 0 0
07-08-2019 23.9 (13:40) 16.7 (00:00) 20.3 10.56 (16:40) 6.39 (17:00) 0 0 0 0 0
06-08-2019 32.1 (15:50) 13.8 (00:00) 22.9 10.28 (19:00) 5.83 (18:20) 0 0 0 0 0
05-08-2019 32.3 (17:40) 12.3 (00:00) 22.3 9.44 (15:30) 4.72 (15:40) 0 0 0 0 0
04-08-2019 32 (17:50) 13.6 (00:00) 22.8 8.33 (16:30) 4.17 (19:30) 0 0 0 0 0
03-08-2019 32.7 (17:40) 13.2 (00:00) 23 10 (15:10) 4.72 (15:20) 0 0 0 0 0
02-08-2019 31.5 (17:00) 11 (00:00) 21.3 6.39 (18:30) 3.89 (19:50) 0 0 0 0 0
01-08-2019 30.2 (17:50) 11 (00:00) 20.6 6.94 (15:40) 3.89 (19:20) 0 0 0 0 0
31-07-2019 28.8 (18:20) 10 (00:00) 19.4 7.5 (13:00) 4.17 (12:50) 0 0 0 0 0
30-07-2019 24.1 (18:00) 6.2 (00:00) 15.2 7.78 (14:00) 4.17 (14:40) 0 0 0 0 0
29-07-2019 25.7 (17:20) 10.7 (00:00) 18.2 9.72 (16:40) 5.28 (15:30) 0 0 0 0 0
28-07-2019 27 (17:50) 9.8 (00:00) 18.4 7.22 (14:30) 3.33 (14:50) 0 0 0 0 0
27-07-2019 23.8 (19:40) 13.3 (00:00) 18.5 10 (19:50) 5.28 (13:50) 0 0 0 0 0
26-07-2019 24.9 (18:00) 15.3 (00:00) 20.1 8.61 (19:10) 4.44 (20:20) 0 0 0 0 0

Gráficas

Temp. máximas Temp. mínimas Temp. medias Precipitaciones Rachas de viento máximas Velocidades máximas media en intervalos de 10 minutos

Datos horarios

Fecha y hora oficial Temperatura (ºC) Velocidad del viento (km/h) Dirección del viento Racha (km/h) Dirección de racha Precipitación (mm) Presión (hPa) Tendencia (hPa) Humedad (%)
2019-08-24 23:00:00 25.2 4 Sur 9 Sudoeste 0 -- -- 28
2019-08-24 22:00:00 24.1 4 Sudoeste 10 Sudoeste 0 -- -- 31
2019-08-24 21:00:00 27.7 0 Calma 10 Norte 0 -- -- 26
2019-08-24 20:00:00 28.9 6 Norte 13 Noroeste 0 -- -- 24
2019-08-24 19:00:00 31.8 7 Norte 22 Noroeste 0 -- -- 21
2019-08-24 18:00:00 31.4 2 Norte 22 Norte 0 -- -- 22
2019-08-24 17:00:00 31.7 10 Nordeste 23 Norte 0 -- -- 22
2019-08-24 16:00:00 31.4 11 Norte 22 Nordeste 0 -- -- 23
2019-08-24 15:00:00 31.3 6 Noroeste 21 Noroeste 0 -- -- 21
2019-08-24 14:00:00 31.8 5 Sudoeste 21 Sudeste 0 -- -- 21
2019-08-24 13:00:00 30.4 9 Oeste 24 Oeste 0 -- -- 23
2019-08-24 12:00:00 29.4 13 Oeste 26 Oeste 0 -- -- 25
2019-08-24 11:00:00 28 9 Sudoeste 18 Sudoeste 0 -- -- 28
2019-08-24 10:00:00 24.6 0 Calma 5 Sur 0 -- -- 34
2019-08-24 09:00:00 18.7 3 Sur 8 Sur 0 -- -- 49
2019-08-24 08:00:00 15.4 5 Sur 8 Sudeste 0 -- -- 55
2019-08-24 07:00:00 14.7 3 Sur 6 Sur 0 -- -- 54
2019-08-24 06:00:00 16.5 4 Sudoeste 17 Norte 0 -- -- 49
2019-08-24 05:00:00 17.7 5 Sudoeste 11 Sudoeste 0 -- -- 45
2019-08-24 04:00:00 17.9 3 Sudoeste 9 Sudeste 0 -- -- 44
2019-08-24 03:00:00 17.8 6 Sudeste 8 Sur 0 -- -- 44
2019-08-24 02:00:00 19.1 6 Sur 10 Sur 0 -- -- 38
2019-08-24 01:00:00 19.9 5 Sur 12 Sudeste 0 -- -- 34
2019-08-24 00:00:00 19.1 5 Sudeste 10 Sur 0 -- -- 36
2019-08-23 23:00:00 19.3 3 Sur 10 Sur 0 -- -- 35
2019-08-23 22:00:00 21.9 3 Sur 4 Sur 0 -- -- 31
2019-08-23 21:00:00 27.2 0 Calma 13 Norte 0 -- -- 24
2019-08-23 20:00:00 29.7 10 Norte 19 Noroeste 0 -- -- 21
2019-08-23 19:00:00 30.5 13 Norte 24 Norte 0 -- -- 20
2019-08-23 18:00:00 31.2 9 Noroeste 21 Noroeste 0 -- -- 19
2019-08-23 17:00:00 31.4 9 Noroeste 18 Nordeste 0 -- -- 19
2019-08-23 16:00:00 31 10 Norte 25 Nordeste 0 -- -- 19
2019-08-23 15:00:00 30.6 6 Noroeste 23 Noroeste 0 -- -- 20
2019-08-23 14:00:00 30.2 9 Nordeste 18 Norte 0 -- -- 20
2019-08-23 13:00:00 29.3 8 Norte 15 Norte 0 -- -- 22
2019-08-23 12:00:00 26.6 3 Noroeste 9 Norte 0 -- -- 25
2019-08-23 11:00:00 22.5 0 Calma 6 Nordeste 0 -- -- 27
2019-08-23 10:00:00 18.4 2 Norte 5 Nordeste 0 -- -- 30
2019-08-23 09:00:00 12.8 0 Calma 4 Noroeste 0 -- -- 44
2019-08-23 08:00:00 10.5 2 Sur 6 Sur 0 -- -- 45
2019-08-23 07:00:00 11.1 0 Calma 4 Sur 0 -- -- 43
2019-08-23 06:00:00 12.1 0 Calma 3 Sur 0 -- -- 39
2019-08-23 05:00:00 12.6 0 Calma 4 Sur 0 -- -- 39
2019-08-23 04:00:00 12.6 0 Calma 4 Sur 0 -- -- 36
2019-08-23 03:00:00 12.9 2 Sur 4 Sur 0 -- -- 37
2019-08-23 02:00:00 14.2 0 Calma 5 Nordeste 0 -- -- 33
2019-08-23 01:00:00 16.8 2 Sudeste 6 Sur 0 -- -- 29
2019-08-23 00:00:00 15.4 4 Sur 7 Sur 0 -- -- 37
2019-08-22 23:00:00 17.1 3 Sur 6 Sur 0 -- -- 32
2019-08-22 22:00:00 21.4 2 Sur 9 Norte 0 -- -- 25
2019-08-22 21:00:00 25.6 6 Norte 20 Norte 0 -- -- 20
2019-08-22 20:00:00 28.2 9 Nordeste 17 Este 0 -- -- 20
2019-08-22 19:00:00 29 8 Nordeste 20 Nordeste 0 -- -- 20
2019-08-22 18:00:00 29.3 11 Nordeste 22 Nordeste 0 -- -- 20
2019-08-22 17:00:00 29 9 Nordeste 25 Nordeste 0 -- -- 22
2019-08-22 16:00:00 28.7 12 Nordeste 27 Nordeste 0 -- -- 22
2019-08-22 15:00:00 28.2 15 Nordeste 30 Nordeste 0 -- -- 23
2019-08-22 14:00:00 27.8 16 Nordeste 33 Nordeste 0 -- -- 27
2019-08-22 13:00:00 26.8 18 Nordeste 29 Nordeste 0 -- -- 29
2019-08-22 12:00:00 23.9 10 Nordeste 22 Norte 0 -- -- 48
2019-08-22 11:00:00 20.4 6 Norte 12 Nordeste 0 -- -- 59
2019-08-22 10:00:00 16.7 3 Norte 6 Norte 0 -- -- 68
2019-08-22 09:00:00 12.8 3 Norte 4 Norte 0 -- -- 80
2019-08-22 08:00:00 11.4 0 Calma 3 Sur 0 -- -- 72
2019-08-22 07:00:00 11.4 2 Sudeste 3 Sudeste 0 -- -- 72
2019-08-22 06:00:00 12.1 4 Norte 7 Norte 0 -- -- 68
2019-08-22 05:00:00 12.7 0 Calma 6 Sur 0 -- -- 66
2019-08-22 04:00:00 13.9 2 Sur 8 Oeste 0 -- -- 63
2019-08-22 03:00:00 14.2 0 Calma 7 Sudeste 0 -- -- 60
2019-08-22 02:00:00 15.2 2 Sudoeste 4 Sur 0 -- -- 55
2019-08-22 01:00:00 16 3 Norte 6 Norte 0 -- -- 48
2019-08-22 00:00:00 17.5 3 Sur 6 Sur 0 -- -- 46
2019-08-21 23:00:00 18.9 3 Sur 5 Sur 0 -- -- 40
2019-08-21 22:00:00 22 5 Sur 10 Sudeste 0 -- -- 35
2019-08-21 21:00:00 24.5 7 Este 15 Este 0 -- -- 33
2019-08-21 20:00:00 26.7 6 Norte 14 Nordeste 0 -- -- 30
2019-08-21 19:00:00 26.7 9 Nordeste 25 Nordeste 0 -- -- 26
2019-08-21 18:00:00 26.7 10 Este 44 Este 0 -- -- 28
2019-08-21 17:00:00 28.5 13 Norte 30 Noroeste 0 -- -- 35
2019-08-21 16:00:00 27.7 8 Noroeste 22 Noroeste 0 -- -- 37
2019-08-21 15:00:00 26.5 13 Noroeste 25 Noroeste 0 -- -- 42
2019-08-21 14:00:00 25.2 6 Norte 15 Norte 0 -- -- 44
2019-08-21 13:00:00 22.4 6 Norte 12 Norte 0 -- -- 50
2019-08-21 12:00:00 19.4 7 Norte 15 Norte 0 -- -- 56
2019-08-21 11:00:00 16.7 4 Norte 10 Nordeste 0 -- -- 64
2019-08-21 10:00:00 14.3 4 Nordeste 7 Nordeste 0 -- -- 71
2019-08-21 09:00:00 11.8 0 Calma 4 Sur 0 -- -- 78
2019-08-21 08:00:00 10.5 0 Calma 4 Noroeste 0 -- -- 79
2019-08-21 07:00:00 11.4 0 Calma 2 Noroeste 0 -- -- 77
2019-08-21 06:00:00 12.7 0 Calma 6 Norte 0 -- -- 73
2019-08-21 05:00:00 13.2 4 Norte 8 Nordeste 0 -- -- 73
2019-08-21 04:00:00 13.5 3 Norte 9 Nordeste 0 -- -- 69
2019-08-21 03:00:00 14.2 5 Nordeste 14 Nordeste 0 -- -- 66
2019-08-21 02:00:00 15.3 9 Nordeste 13 Norte 0 -- -- 61
2019-08-21 01:00:00 16.3 6 Nordeste 12 Nordeste 0 -- -- 57
2019-08-21 00:00:00 18 8 Nordeste 15 Nordeste 0 -- -- 52
2019-08-20 23:00:00 19.5 8 Nordeste 21 Norte 0 -- -- 46
2019-08-20 22:00:00 21.3 14 Nordeste 28 Norte 0 -- -- 41
2019-08-20 21:00:00 23.5 12 Norte 23 Nordeste 0 -- -- 33
2019-08-20 20:00:00 25.4 12 Nordeste 24 Norte 0 -- -- 27
2019-08-20 19:00:00 26.1 13 Nordeste 24 Norte 0 -- -- 28
2019-08-20 18:00:00 26 12 Nordeste 33 Nordeste 0 -- -- 29
2019-08-20 17:00:00 25.8 13 Nordeste 30 Nordeste 0 -- -- 30
2019-08-20 16:00:00 24.9 15 Nordeste 31 Nordeste 0 -- -- 35
2019-08-20 15:00:00 23.9 15 Nordeste 28 Nordeste 0 -- -- 38
2019-08-20 14:00:00 22.2 14 Nordeste 28 Nordeste 0 -- -- 48
2019-08-20 13:00:00 20 15 Nordeste 26 Nordeste 0 -- -- 58
2019-08-20 12:00:00 18.1 15 Nordeste 24 Este 0 -- -- 65
2019-08-20 11:00:00 16 12 Nordeste 23 Nordeste 0 -- -- 72
2019-08-20 10:00:00 14.2 13 Nordeste 21 Nordeste 0 -- -- 79
2019-08-20 09:00:00 13.4 8 Nordeste 15 Nordeste 0 -- -- 83
2019-08-20 08:00:00 11.2 3 Norte 5 Este 0 -- -- 86
2019-08-20 07:00:00 11.9 3 Nordeste 8 Norte 0 -- -- 82
2019-08-20 06:00:00 13 6 Nordeste 18 Nordeste 0 -- -- 79
2019-08-20 05:00:00 14.1 10 Norte 19 Nordeste 0 -- -- 74
2019-08-20 04:00:00 15.1 11 Nordeste 21 Norte 0 -- -- 70
2019-08-20 03:00:00 16 12 Norte 22 Nordeste 0 -- -- 68
2019-08-20 02:00:00 17.4 12 Nordeste 21 Nordeste 0 -- -- 64
2019-08-20 01:00:00 18.4 11 Nordeste 19 Nordeste 0 -- -- 60
2019-08-20 00:00:00 19.2 7 Nordeste 18 Nordeste 0 -- -- 58
2019-08-19 23:00:00 19.5 8 Nordeste 15 Nordeste 0 -- -- 56
2019-08-19 22:00:00 20.5 0 Calma 0 Calma 0 -- -- 49
2019-08-19 21:00:00 21.5 0 Calma 8 Norte 0 -- -- 46
2019-08-19 20:00:00 22.1 4 Norte 13 Norte 0 -- -- 44
2019-08-19 19:00:00 22.1 8 Norte 14 Norte 0 -- -- 45
2019-08-19 18:00:00 22 6 Norte 10 Norte 0 -- -- 47
2019-08-19 17:00:00 22.2 7 Norte 13 Norte 0 -- -- 47
2019-08-19 16:00:00 22.5 9 Norte 19 Norte 0 -- -- 48
2019-08-19 15:00:00 22.1 9 Norte 24 Norte 0 -- -- 50
2019-08-19 14:00:00 22.6 13 Norte 26 Norte 0 -- -- 52
2019-08-19 13:00:00 21.4 8 Nordeste 16 Norte 0 -- -- 56
2019-08-19 12:00:00 20.2 8 Nordeste 21 Norte 0 -- -- 60
2019-08-19 11:00:00 18.9 11 Norte 17 Norte 0 -- -- 66
2019-08-19 10:00:00 16.8 7 Norte 13 Norte 0 -- -- 74
2019-08-19 09:00:00 15 3 Norte 8 Norte 0 -- -- 77
2019-08-19 08:00:00 13.3 0 Calma 3 Sur 0 -- -- 75
2019-08-19 07:00:00 13.4 0 Calma 3 Sudeste 0 -- -- 73
2019-08-19 06:00:00 14 0 Calma 3 Sudeste 0 -- -- 71
2019-08-19 05:00:00 15.7 3 Norte 9 Norte 0 -- -- 66
2019-08-19 04:00:00 17 6 Norte 12 Norte 0 -- -- 62
2019-08-19 03:00:00 18.9 7 Norte 17 Noroeste 0 -- -- 56
2019-08-19 02:00:00 20.5 6 Noroeste 17 Noroeste 0 -- -- 56
2019-08-19 01:00:00 20.4 4 Oeste 9 Oeste 0 -- -- 58
2019-08-19 00:00:00 20.8 3 Noroeste 14 Oeste 0 -- -- 58
2019-08-18 23:00:00 22.1 5 Noroeste 12 Noroeste 0 -- -- 54
2019-08-18 22:00:00 23.5 6 Noroeste 19 Noroeste 0 -- -- 50
2019-08-18 21:00:00 25.2 10 Noroeste 24 Noroeste 0 -- -- 45
2019-08-18 20:00:00 27.2 12 Noroeste 30 Oeste 0 -- -- 40
2019-08-18 19:00:00 28.4 13 Noroeste 30 Oeste 0 -- -- 34
2019-08-18 18:00:00 29.1 13 Oeste 30 Oeste 0 -- -- 29
2019-08-18 17:00:00 28.7 10 Oeste 35 Norte 0 -- -- 27
2019-08-18 16:00:00 28.5 14 Oeste 29 Oeste 0 -- -- 26
2019-08-18 15:00:00 27.6 14 Oeste 27 Oeste 0 -- -- 30
2019-08-18 14:00:00 25.4 13 Noroeste 26 Norte 0 -- -- 38
2019-08-18 13:00:00 25.3 14 Oeste 26 Oeste 0 -- -- 32
2019-08-18 12:00:00 24.2 8 Oeste 18 Oeste 0 -- -- 42
2019-08-18 11:00:00 23 7 Noroeste 15 Norte 0 -- -- 46
2019-08-18 10:00:00 20.9 0 Calma 15 Sur 0 -- -- 52
2019-08-18 09:00:00 16.6 7 Sur 14 Sur 0 -- -- 74
2019-08-18 08:00:00 12.2 3 Sur 6 Sur 0 -- -- 77
2019-08-18 07:00:00 13.1 2 Sur 11 Norte 0 -- -- 73
2019-08-18 06:00:00 14.8 0 Calma 7 Sur 0 -- -- 67
2019-08-18 05:00:00 15.6 5 Sur 8 Sur 0 -- -- 66
2019-08-18 04:00:00 15.9 3 Sur 9 Sudoeste 0 -- -- 60
2019-08-18 03:00:00 17 2 Sudoeste 7 Sudoeste 0 -- -- 53
2019-08-18 02:00:00 18.1 3 Sur 10 Sudoeste 0 -- -- 44
2019-08-18 01:00:00 21.7 6 Sudoeste 13 Oeste 0 -- -- 33
2019-08-18 00:00:00 20.1 5 Sur 8 Oeste 0 -- -- 33
2019-08-17 23:00:00 24.1 4 Sudoeste 11 Oeste 0 -- -- 25
2019-08-17 22:00:00 26.9 4 Sudoeste 17 Sudoeste 0 -- -- 20
2019-08-17 21:00:00 29.9 10 Sudoeste 25 Oeste 0 -- -- 14
2019-08-17 20:00:00 31.9 15 Sudoeste 29 Sudoeste 0 -- -- 15
2019-08-17 19:00:00 32.9 17 Sudoeste 31 Oeste 0 -- -- 11
2019-08-17 18:00:00 33.2 17 Oeste 35 Oeste 0 -- -- 16
2019-08-17 17:00:00 33.2 14 Oeste 33 Oeste 0 -- -- 18
2019-08-17 16:00:00 33 11 Oeste 29 Oeste 0 -- -- 20
2019-08-17 15:00:00 31.3 10 Noroeste 24 Oeste 0 -- -- 26
2019-08-17 14:00:00 29.9 8 Noroeste 24 Noroeste 0 -- -- 31
2019-08-17 13:00:00 28.6 10 Norte 22 Norte 0 -- -- 32
2019-08-17 12:00:00 26.5 5 Nordeste 12 Norte 0 -- -- 37
2019-08-17 11:00:00 24.2 3 Nordeste 8 Norte 0 -- -- 43
2019-08-17 10:00:00 21.6 2 Norte 6 Norte 0 -- -- 49
2019-08-17 09:00:00 15.9 0 Calma 4 Sur 0 -- -- 66
2019-08-17 08:00:00 12.6 4 Sur 9 Sur 0 -- -- 72
2019-08-17 07:00:00 13.1 3 Sur 6 Sur 0 -- -- 67
2019-08-17 06:00:00 14.5 0 Calma 6 Sur 0 -- -- 61
2019-08-17 05:00:00 15.2 3 Sur 6 Sudeste 0 -- -- 59
2019-08-17 04:00:00 15.5 4 Sur 6 Sur 0 -- -- 57
2019-08-17 03:00:00 16.5 3 Sur 6 Sudeste 0 -- -- 51
2019-08-17 02:00:00 17.5 4 Sur 6 Sur 0 -- -- 45
2019-08-17 01:00:00 17.9 4 Sur 6 Sudoeste 0 -- -- 43
2019-08-17 00:00:00 18.3 4 Sur 6 Sudeste 0 -- -- 37
2019-08-16 23:00:00 20.5 3 Sur 7 Sur 0 -- -- 32
2019-08-16 22:00:00 25.4 3 Oeste 11 Noroeste 0 -- -- 24
2019-08-16 21:00:00 29 6 Noroeste 22 Noroeste 0 -- -- 19
2019-08-16 20:00:00 31.2 13 Noroeste 32 Noroeste 0 -- -- 20
2019-08-16 19:00:00 31.9 13 Noroeste 32 Noroeste 0 -- -- 22
2019-08-16 18:00:00 32.4 12 Noroeste 34 Noroeste 0 -- -- 23
2019-08-16 17:00:00 32.4 15 Noroeste 44 Oeste 0 -- -- 26
2019-08-16 16:00:00 31.7 10 Oeste 26 Oeste 0 -- -- 26
2019-08-16 15:00:00 30.8 10 Oeste 28 Noroeste 0 -- -- 30
2019-08-16 14:00:00 29.7 10 Noroeste 23 Noroeste 0 -- -- 33
2019-08-16 13:00:00 27.3 5 Noroeste 18 Norte 0 -- -- 38
2019-08-16 12:00:00 25.9 7 Noroeste 16 Norte 0 -- -- 43
2019-08-16 11:00:00 24.8 7 Oeste 17 Noroeste 0 -- -- 45
2019-08-16 10:00:00 22.4 6 Oeste 14 Sudoeste 0 -- -- 52
2019-08-16 09:00:00 18.1 6 Sudoeste 15 Sudoeste 0 -- -- 66
2019-08-16 08:00:00 14.7 4 Sur 8 Sudeste 0 -- -- 73
2019-08-16 07:00:00 14.3 3 Sur 9 Sudoeste 0 -- -- 72
2019-08-16 06:00:00 15 3 Sudoeste 8 Sudeste 0 -- -- 69
2019-08-16 05:00:00 16.2 0 Calma 9 Sudeste 0 -- -- 64
2019-08-16 04:00:00 16.8 5 Sudeste 8 Sudeste 0 -- -- 61
2019-08-16 03:00:00 17.6 4 Sudoeste 9 Sudoeste 0 -- -- 59
2019-08-16 02:00:00 17.2 2 Sur 5 Sudoeste 0 -- -- 55
2019-08-16 01:00:00 18 3 Sur 5 Sur 0 -- -- 51
2019-08-16 00:00:00 19.3 4 Sur 12 Oeste 0 -- -- 47
2019-08-15 23:00:00 19.8 4 Sur 5 Sur 0 -- -- 45
2019-08-15 22:00:00 23.7 3 Sur 4 Sur 0 -- -- 37
2019-08-15 21:00:00 27.4 3 Norte 16 Norte 0 -- -- 31
2019-08-15 20:00:00 29.4 11 Norte 19 Norte 0 -- -- 27
2019-08-15 19:00:00 30.1 12 Norte 22 Norte 0 -- -- 25
2019-08-15 18:00:00 30.6 12 Norte 21 Norte 0 -- -- 26
2019-08-15 17:00:00 30.4 7 Nordeste 19 Nordeste 0 -- -- 24
2019-08-15 16:00:00 29.8 7 Nordeste 21 Norte 0 -- -- 27
2019-08-15 15:00:00 29 12 Norte 26 Nordeste 0 -- -- 28
2019-08-15 14:00:00 28.5 11 Nordeste 24 Norte 0 -- -- 25
2019-08-15 13:00:00 26.8 12 Nordeste 22 Nordeste 0 -- -- 30
2019-08-15 12:00:00 24.8 8 Nordeste 15 Norte 0 -- -- 44
2019-08-15 11:00:00 22.5 4 Nordeste 9 Norte 0 -- -- 55
2019-08-15 10:00:00 19.8 4 Norte 11 Norte 0 -- -- 64
2019-08-15 09:00:00 16.4 0 Calma 6 Sudeste 0 -- -- 79
2019-08-15 08:00:00 13.9 0 Calma 5 Sur 0 -- -- 83
2019-08-15 07:00:00 13.7 4 Sur 5 Sur 0 -- -- 81
2019-08-15 06:00:00 14.3 2 Sur 5 Sur 0 -- -- 77
2019-08-15 05:00:00 15.7 0 Calma 5 Sur 0 -- -- 73
2019-08-15 04:00:00 16.5 4 Sur 6 Sur 0 -- -- 69
2019-08-15 03:00:00 17.5 4 Sur 8 Sur 0 -- -- 66
2019-08-15 02:00:00 17.7 3 Sur 7 Sur 0 -- -- 61
2019-08-15 01:00:00 17.8 4 Sur 6 Sudeste 0 -- -- 56
2019-08-15 00:00:00 18.8 3 Sur 6 Sur 0 -- -- 50
2019-08-14 23:00:00 20.2 3 Sur 5 Sur 0 -- -- 45
2019-08-14 22:00:00 24 0 Calma 11 Norte 0 -- -- 36
2019-08-14 21:00:00 26.7 9 Norte 22 Norte 0 -- -- 31
2019-08-14 20:00:00 29 10 Norte 19 Norte 0 -- -- 26
2019-08-14 19:00:00 29.7 9 Norte 19 Noroeste 0 -- -- 23
2019-08-14 18:00:00 30.1 7 Oeste 20 Noroeste 0 -- -- 21
2019-08-14 17:00:00 29.1 5 Norte 26 Noroeste 0 -- -- 23
2019-08-14 16:00:00 29.1 11 Norte 26 Noroeste 0 -- -- 22
2019-08-14 15:00:00 28.3 8 Oeste 20 Noroeste 0 -- -- 22
2019-08-14 14:00:00 27.2 7 Oeste 16 Noroeste 0 -- -- 21
2019-08-14 13:00:00 25.9 4 Norte 14 Norte 0 -- -- 23
2019-08-14 12:00:00 24.6 6 Noroeste 15 Noroeste 0 -- -- 25
2019-08-14 11:00:00 22.5 4 Noroeste 9 Noroeste 0 -- -- 27
2019-08-14 10:00:00 19.7 3 Oeste 11 Noroeste 0 -- -- 32
2019-08-14 09:00:00 13.5 0 Calma 5 Sur 0 -- -- 51
2019-08-14 08:00:00 10.3 2 Sur 7 Sur 0 -- -- 54
2019-08-14 07:00:00 9.5 4 Sur 6 Sur 0 -- -- 56
2019-08-14 06:00:00 10 2 Sur 5 Sur 0 -- -- 54
2019-08-14 05:00:00 10.4 2 Sudoeste 6 Sur 0 -- -- 53
2019-08-14 04:00:00 11.3 0 Calma 4 Sudeste 0 -- -- 50
2019-08-14 03:00:00 11.8 2 Sur 7 Sudeste 0 -- -- 48
2019-08-14 02:00:00 12.1 3 Sur 6 Sur 0 -- -- 46
2019-08-14 01:00:00 12.1 3 Sudeste 6 Sudeste 0 -- -- 46
2019-08-14 00:00:00 12.8 3 Sur 4 Sur 0 -- -- 43
2019-08-13 23:00:00 14.8 0 Calma 6 Sur 0 -- -- 39
2019-08-13 22:00:00 18.7 0 Calma 9 Norte 0 -- -- 30
2019-08-13 21:00:00 22.3 8 Norte 13 Norte 0 -- -- 24
2019-08-13 20:00:00 24.5 5 Norte 16 Norte 0 -- -- 19
2019-08-13 19:00:00 25 7 Norte 19 Norte 0 -- -- 20
2019-08-13 18:00:00 25.1 10 Nordeste 24 Norte 0 -- -- 20
2019-08-13 17:00:00 25.3 13 Noroeste 24 Norte 0 -- -- 20
2019-08-13 16:00:00 24.6 6 Norte 21 Norte 0 -- -- 23
2019-08-13 15:00:00 24.1 6 Nordeste 22 Norte 0 -- -- 26
2019-08-13 14:00:00 22.9 12 Nordeste 24 Este 0 -- -- 30
2019-08-13 13:00:00 21.5 13 Nordeste 28 Nordeste 0 -- -- 33
2019-08-13 12:00:00 20.1 14 Nordeste 23 Nordeste 0 -- -- 39
2019-08-13 11:00:00 17.6 11 Nordeste 18 Norte 0 -- -- 50
2019-08-13 10:00:00 14 11 Nordeste 17 Nordeste 0 -- -- 62
2019-08-13 09:00:00 10.7 6 Nordeste 10 Nordeste 0 -- -- 74
2019-08-13 08:00:00 8.9 3 Nordeste 7 Nordeste 0 -- -- 79
2019-08-13 07:00:00 9.1 4 Norte 14 Nordeste 0 -- -- 78
2019-08-13 06:00:00 10.2 6 Nordeste 17 Nordeste 0 -- -- 73
2019-08-13 05:00:00 11.1 8 Nordeste 18 Nordeste 0 -- -- 67
2019-08-13 04:00:00 12.2 9 Nordeste 15 Nordeste 0 -- -- 61
2019-08-13 03:00:00 14 8 Este 18 Este 0 -- -- 52
2019-08-13 02:00:00 14.4 5 Este 11 Nordeste 0 -- -- 48
2019-08-13 01:00:00 14.9 6 Nordeste 12 Este 0 -- -- 43
2019-08-13 00:00:00 14.4 3 Nordeste 6 Nordeste 0 -- -- 42
2019-08-12 23:00:00 16.9 0 Calma 7 Nordeste 0 -- -- 36
2019-08-12 22:00:00 18.4 5 Norte 15 Nordeste 0 -- -- 32
2019-08-12 21:00:00 19.8 8 Nordeste 19 Nordeste 0 -- -- 28
2019-08-12 20:00:00 20.5 11 Norte 27 Norte 0 -- -- 26
2019-08-12 19:00:00 22 11 Nordeste 25 Nordeste 0 -- -- 25
2019-08-12 18:00:00 22 11 Nordeste 27 Nordeste 0 -- -- 25
2019-08-12 17:00:00 21.9 11 Este 27 Nordeste 0 -- -- 28
2019-08-12 16:00:00 20.9 13 Nordeste 27 Nordeste 0 -- -- 30
2019-08-12 15:00:00 19.9 13 Nordeste 29 Nordeste 0 -- -- 35
2019-08-12 14:00:00 18.5 14 Nordeste 32 Nordeste 0 -- -- 40
2019-08-12 13:00:00 17.7 13 Nordeste 27 Este 0 -- -- 45
2019-08-12 12:00:00 16.2 13 Nordeste 24 Nordeste 0 -- -- 52
2019-08-12 11:00:00 14.4 13 Nordeste 22 Nordeste 0 -- -- 61
2019-08-12 10:00:00 12.2 6 Nordeste 13 Este 0 -- -- 72
2019-08-12 09:00:00 8.5 0 Calma 4 Norte 0 -- -- 80
2019-08-12 08:00:00 5.7 0 Calma 4 Sur 0 -- -- 89
2019-08-12 07:00:00 5.5 3 Sur 5 Sur 0 -- -- 86
2019-08-12 06:00:00 6.2 3 Sudoeste 4 Sudoeste 0 -- -- 84
2019-08-12 05:00:00 6.7 3 Sur 4 Sur 0 -- -- 82
2019-08-12 04:00:00 7.4 3 Sur 5 Sur 0 -- -- 78
2019-08-12 03:00:00 8.3 3 Sur 5 Sur 0 -- -- 75
2019-08-12 02:00:00 9.8 2 Sur 6 Noroeste 0 -- -- 69
2019-08-12 01:00:00 12.4 3 Noroeste 8 Norte 0 -- -- 62
2019-08-12 00:00:00 14.2 3 Norte 14 Oeste 0 -- -- 49
2019-08-11 23:00:00 15.9 7 Noroeste 15 Noroeste 0 -- -- 42
2019-08-11 22:00:00 17.1 6 Noroeste 17 Noroeste 0 -- -- 40
2019-08-11 21:00:00 19.2 9 Noroeste 26 Noroeste 0 -- -- 32
2019-08-11 20:00:00 21.4 11 Noroeste 34 Norte 0 -- -- 29
2019-08-11 19:00:00 21.9 10 Noroeste 31 Oeste 0 -- -- 26
2019-08-11 18:00:00 21.8 13 Oeste 33 Noroeste 0 -- -- 31
2019-08-11 17:00:00 22.1 9 Noroeste 30 Noroeste 0 -- -- 33
2019-08-11 16:00:00 20.9 12 Noroeste 29 Noroeste 0 -- -- 38
2019-08-11 15:00:00 20.3 12 Oeste 25 Noroeste 0 -- -- 43
2019-08-11 14:00:00 19.1 10 Oeste 28 Noroeste 0 -- -- 57
2019-08-11 13:00:00 18.4 9 Oeste 18 Oeste 0 -- -- 64
2019-08-11 12:00:00 16.3 5 Oeste 13 Oeste 0 -- -- 70
2019-08-11 11:00:00 15.3 6 Noroeste 13 Noroeste 0 -- -- 79
2019-08-11 10:00:00 14.3 7 Oeste 14 Oeste 0 -- -- 86
2019-08-11 09:00:00 13.1 5 Oeste 15 Oeste 0 -- -- 89
2019-08-11 08:00:00 11 0 Calma 3 Sudoeste 0 -- -- 92
2019-08-11 07:00:00 12.3 0 Calma 4 Norte 0 -- -- 87
2019-08-11 06:00:00 13.2 4 Norte 10 Norte 0 -- -- 85
2019-08-11 05:00:00 15.1 2 Sur 8 Sudeste 0.4 -- -- 83
2019-08-11 04:00:00 16.3 2 Noroeste 16 Noroeste 0 -- -- 73
2019-08-11 03:00:00 17.6 5 Noroeste 15 Noroeste 0 -- -- 56
2019-08-11 02:00:00 18.6 4 Oeste 15 Noroeste 0 -- -- 49
2019-08-11 01:00:00 18 0 Calma 5 Sur 0 -- -- 54
2019-08-11 00:00:00 19.1 4 Sur 6 Noroeste 0 -- -- 48
2019-08-10 23:00:00 20.6 4 Noroeste 13 Noroeste 0 -- -- 41
2019-08-10 22:00:00 21.8 9 Norte 17 Noroeste 0 -- -- 39
2019-08-10 21:00:00 23.6 9 Noroeste 26 Noroeste 0 -- -- 36
2019-08-10 20:00:00 25.5 9 Oeste 26 Oeste 0 -- -- 34
2019-08-10 19:00:00 26.2 9 Oeste 25 Oeste 0 -- -- 29
2019-08-10 18:00:00 26.6 11 Oeste 25 Oeste 0 -- -- 29
2019-08-10 17:00:00 25.6 6 Norte 18 Oeste 0 -- -- 32
2019-08-10 16:00:00 24.8 5 Norte 17 Noroeste 0 -- -- 33
2019-08-10 15:00:00 23.7 4 Noroeste 14 Norte 0 -- -- 39
2019-08-10 14:00:00 21.7 5 Nordeste 15 Norte 0 -- -- 50
2019-08-10 13:00:00 19.7 6 Nordeste 19 Nordeste 0 -- -- 60
2019-08-10 12:00:00 18.6 7 Nordeste 15 Norte 0 -- -- 67
2019-08-10 11:00:00 17 5 Nordeste 12 Nordeste 0 -- -- 70
2019-08-10 10:00:00 15.8 3 Nordeste 6 Norte 0 -- -- 76
2019-08-10 09:00:00 13.5 0 Calma -- -- 0 -- -- 89
2019-08-10 08:00:00 11.4 0 Calma 6 Sur 0 -- -- 95
2019-08-10 07:00:00 10.9 0 Calma 5 Sur 0 -- -- 96
2019-08-10 06:00:00 10.2 2 Sur 5 Sur 0 -- -- 96
2019-08-10 05:00:00 10.6 0 Calma 6 Sudeste 0 -- -- 94
2019-08-10 04:00:00 11.4 3 Sur 5 Sur 0 -- -- 92
2019-08-10 03:00:00 12.4 0 Calma 9 Oeste 0 -- -- 89
2019-08-10 02:00:00 14.1 4 Sudoeste 11 Sur 0 -- -- 85
2019-08-10 01:00:00 14.5 6 Sudoeste 12 Sudoeste 0 -- -- 86
2019-08-10 00:00:00 14.2 3 Sudoeste 9 Sur 0 -- -- 87
2019-08-09 23:00:00 15.4 5 Sur 10 Sudoeste 0 -- -- 86
2019-08-09 22:00:00 17 5 Sudoeste 12 Sudoeste 0 -- -- 85
2019-08-09 21:00:00 18.4 6 Sudoeste 21 Sudoeste 0 -- -- 80
2019-08-09 20:00:00 18.3 13 Sudoeste 23 Sudoeste 0 -- -- 84
2019-08-09 19:00:00 16.6 11 Sudoeste 25 Sudoeste 1.2 -- -- 91
2019-08-09 18:00:00 15.8 17 Sudoeste 33 Oeste 0.8 -- -- 91
2019-08-09 17:00:00 17.5 17 Sudoeste 45 Sudoeste 0.2 -- -- 79
2019-08-09 16:00:00 22.1 14 Oeste 37 Sudoeste 0 -- -- 72
2019-08-09 15:00:00 22.6 21 Sudoeste 36 Sudoeste 0.2 -- -- 73
2019-08-09 14:00:00 20.3 12 Noroeste 26 Noroeste 0 -- -- 82
2019-08-09 13:00:00 21.9 13 Noroeste 56 Sudoeste 0 -- -- 73
2019-08-09 12:00:00 22.5 23 Sudoeste 53 Sudoeste 0 -- -- 70
2019-08-09 11:00:00 22.6 25 Sudoeste 44 Sudoeste 0 -- -- 71
2019-08-09 10:00:00 21.3 25 Sudoeste 47 Sudoeste 0 -- -- 75
2019-08-09 09:00:00 20.5 24 Sudoeste 43 Sudoeste 0 -- -- 78
2019-08-09 08:00:00 19.4 24 Sudoeste 40 Sudoeste 0 -- -- 81
2019-08-09 07:00:00 18.9 19 Sudoeste 37 Sudoeste 0 -- -- 83
2019-08-09 06:00:00 19.1 6 Sudoeste 30 Sudoeste 0 -- -- 76
2019-08-09 05:00:00 19.7 12 Sudoeste 30 Sudoeste 0 -- -- 71
2019-08-09 04:00:00 20 17 Sudoeste 28 Sudoeste 0 -- -- 72
2019-08-09 03:00:00 20.6 17 Sudoeste 28 Sudoeste 0 -- -- 70
2019-08-09 02:00:00 21.2 12 Sudoeste 21 Sudoeste 0 -- -- 65
2019-08-09 01:00:00 21.7 10 Sudoeste 23 Sudoeste 0 -- -- 65
2019-08-09 00:00:00 22.6 11 Sudoeste 26 Sudoeste 0 -- -- 61
2019-08-08 23:00:00 23.8 12 Sudoeste 26 Oeste 0 -- -- 58
2019-08-08 22:00:00 24.9 13 Sudoeste 30 Sudoeste 0 -- -- 53
2019-08-08 21:00:00 26.3 17 Sudoeste 43 Sudoeste 0 -- -- 45
2019-08-08 20:00:00 28 24 Sudoeste 46 Sudoeste 0 -- -- 40
2019-08-08 19:00:00 29 22 Sudoeste 41 Oeste 0 -- -- 36
2019-08-08 18:00:00 29.1 21 Oeste 46 Sudoeste 0 -- -- 38
2019-08-08 17:00:00 29.3 20 Sudoeste 43 Oeste 0 -- -- 37
2019-08-08 16:00:00 29 25 Sudoeste 43 Sudoeste 0 -- -- 37
2019-08-08 15:00:00 28.9 21 Sudoeste 39 Sudoeste 0 -- -- 38
2019-08-08 14:00:00 28.4 22 Sudoeste 36 Sudoeste 0 -- -- 39
2019-08-08 13:00:00 27 16 Sudoeste 34 Sudoeste 0 -- -- 46
2019-08-08 12:00:00 25.4 18 Sudoeste 35 Oeste 0 -- -- 51
2019-08-08 11:00:00 24.5 17 Sudoeste 30 Sudoeste 0 -- -- 52
2019-08-08 10:00:00 23.5 14 Sudoeste 24 Sudoeste 0 -- -- 53
2019-08-08 09:00:00 20.8 10 Sur 22 Sudoeste 0 -- -- 60
2019-08-08 08:00:00 19.1 8 Sudoeste 18 Sudoeste 0 -- -- 68
2019-08-08 07:00:00 17.9 7 Sudoeste 14 Sudoeste 0 -- -- 72
2019-08-08 06:00:00 17.8 6 Sudoeste 12 Sudoeste 0 -- -- 71
2019-08-08 05:00:00 18.1 5 Sudoeste 10 Sudoeste 0 -- -- 66
2019-08-08 04:00:00 19 7 Sudoeste 20 Sudoeste 0 -- -- 63
2019-08-08 03:00:00 19.2 10 Sudoeste 21 Sudoeste 0 -- -- 63
2019-08-08 02:00:00 17.8 4 Sur 9 Sudoeste 0 -- -- 67
2019-08-08 01:00:00 19.1 5 Sudoeste 21 Sur 0 -- -- 63
2019-08-08 00:00:00 19.2 8 Sudoeste 15 Sur 0 -- -- 62
2019-08-07 23:00:00 19.8 8 Sudoeste 16 Sudoeste 0 -- -- 58
2019-08-07 22:00:00 20.7 8 Sudoeste 20 Sudoeste 0 -- -- 53
2019-08-07 21:00:00 21.9 10 Sudoeste 23 Sudoeste 0 -- -- 49
2019-08-07 20:00:00 23.1 10 Sudoeste 31 Sudoeste 0 -- -- 46
2019-08-07 19:00:00 23 14 Sudoeste 28 Sudoeste 0 -- -- 43
2019-08-07 18:00:00 22.5 14 Sudoeste 34 Sudoeste 0 -- -- 45
2019-08-07 17:00:00 22.7 23 Sudoeste 38 Sudoeste 0 -- -- 44
2019-08-07 16:00:00 23.5 17 Sudoeste 31 Sudoeste 0 -- -- 44
2019-08-07 15:00:00 22.6 13 Sur 33 Sudoeste 0 -- -- 51
2019-08-07 14:00:00 23.8 16 Sudoeste 28 Sudoeste 0 -- -- 41
2019-08-07 13:00:00 23.3 8 Sudoeste 15 Sur 0 -- -- 55
2019-08-07 12:00:00 22.3 4 Norte 9 Oeste 0 -- -- 59
2019-08-07 11:00:00 21.2 0 Calma 5 Sur 0 -- -- 62
2019-08-07 10:00:00 19.9 4 Sudoeste 9 Sudoeste 0 -- -- 67
2019-08-07 09:00:00 18.5 4 Sur 7 Sudeste 0 -- -- 73
2019-08-07 08:00:00 16.7 0 Calma 8 Oeste 0 -- -- 76
2019-08-07 07:00:00 17.7 2 Noroeste 5 Norte 0 -- -- 72
2019-08-07 06:00:00 18.5 2 Noroeste 17 Norte 0 -- -- 69
2019-08-07 05:00:00 19.1 4 Sur 8 Sur 0 -- -- 66
2019-08-07 04:00:00 20.5 4 Sudoeste 9 Sudoeste 0 -- -- 62
2019-08-07 03:00:00 21.2 0 Calma 5 Noroeste 0 -- -- 60
2019-08-07 02:00:00 21.8 0 Calma 8 Noroeste 0 -- -- 57
2019-08-07 01:00:00 22.5 0 Calma 8 Noroeste 0 -- -- 53
2019-08-07 00:00:00 23.2 0 Calma 17 Noroeste 0 -- -- 51
2019-08-06 23:00:00 24.2 10 Noroeste 22 Oeste 0 -- -- 47
2019-08-06 22:00:00 26.1 3 Oeste 20 Oeste 0 -- -- 33
2019-08-06 21:00:00 28 12 Sudoeste 30 Sudoeste 0 -- -- 26
2019-08-06 20:00:00 28.9 17 Sudoeste 30 Sudoeste 0 -- -- 25
2019-08-06 19:00:00 29.7 20 Sudoeste 37 Sudoeste 0 -- -- 27
2019-08-06 18:00:00 31.3 18 Sudoeste 35 Sudoeste 0 -- -- 23
2019-08-06 17:00:00 31.6 14 Sudoeste 33 Sudoeste 0 -- -- 19
2019-08-06 16:00:00 32.1 10 Sudoeste 34 Sudoeste 0 -- -- 21
2019-08-06 15:00:00 31.4 11 Sudoeste 26 Sudoeste 0 -- -- 21
2019-08-06 14:00:00 30.4 5 Noroeste 26 Noroeste 0 -- -- 27
2019-08-06 13:00:00 28.7 12 Noroeste 28 Oeste 0 -- -- 29
2019-08-06 12:00:00 27.1 7 Noroeste 17 Oeste 0 -- -- 34
2019-08-06 11:00:00 24.8 6 Norte 13 Noroeste 0 -- -- 46
2019-08-06 10:00:00 23 2 Nordeste 5 Este 0 -- -- 51
2019-08-06 09:00:00 18.6 0 Calma 10 Sudeste 0 -- -- 62
2019-08-06 08:00:00 14.2 3 Sudeste 6 Sur 0 -- -- 69
2019-08-06 07:00:00 13.9 3 Sur 8 Sudeste 0 -- -- 64
2019-08-06 06:00:00 14.6 0 Calma 5 Sur 0 -- -- 61
2019-08-06 05:00:00 16 3 Sur 4 Sur 0 -- -- 56
2019-08-06 04:00:00 17.1 2 Sur 8 Sur 0 -- -- 54
2019-08-06 03:00:00 17.3 3 Sur 5 Sudoeste 0 -- -- 46
2019-08-06 02:00:00 18.8 3 Sudoeste 10 Sudoeste 0 -- -- 34
2019-08-06 01:00:00 19.2 2 Sur 6 Sur 0 -- -- 29
2019-08-06 00:00:00 20.2 3 Sur 6 Sudeste 0 -- -- 29
2019-08-05 23:00:00 22.8 0 Calma 11 Sudoeste 0 -- -- 26
2019-08-05 22:00:00 26.7 4 Sudoeste 17 Sudoeste 0 -- -- 24
2019-08-05 21:00:00 29.5 6 Oeste 26 Oeste 0 -- -- 19
2019-08-05 20:00:00 31.5 10 Oeste 19 Sudoeste 0 -- -- 17
2019-08-05 19:00:00 32 7 Oeste 22 Oeste 0 -- -- 13
2019-08-05 18:00:00 32.1 12 Sudoeste 31 Sudoeste 0 -- -- 13
2019-08-05 17:00:00 32 13 Oeste 31 Oeste 0 -- -- 16
2019-08-05 16:00:00 31.5 14 Oeste 34 Oeste 0 -- -- 15
2019-08-05 15:00:00 30.8 11 Oeste 32 Oeste 0 -- -- 20
2019-08-05 14:00:00 29.3 13 Noroeste 28 Oeste 0 -- -- 25
2019-08-05 13:00:00 27.7 10 Noroeste 22 Noroeste 0 -- -- 32
2019-08-05 12:00:00 25 4 Norte 10 Norte 0 -- -- 45
2019-08-05 11:00:00 22.1 4 Nordeste 12 Norte 0 -- -- 57
2019-08-05 10:00:00 20 5 Norte 9 Norte 0 -- -- 66
2019-08-05 09:00:00 15.9 0 Calma 4 Sur 0 -- -- 77
2019-08-05 08:00:00 12.9 3 Sur 6 Sur 0 -- -- 83
2019-08-05 07:00:00 12.7 3 Sur 4 Sur 0 -- -- 81
2019-08-05 06:00:00 13.5 3 Sur 5 Sur 0 -- -- 78
2019-08-05 05:00:00 14.8 2 Sur 6 Sur 0 -- -- 72
2019-08-05 04:00:00 15.8 2 Sur 5 Sur 0 -- -- 68
2019-08-05 03:00:00 17.1 3 Sur 5 Sur 0 -- -- 63
2019-08-05 02:00:00 18.7 3 Sur 7 Sur 0 -- -- 54
2019-08-05 01:00:00 20.1 4 Sudoeste 11 Sudoeste 0 -- -- 45
2019-08-05 00:00:00 19.8 4 Sur 8 Sur 0 -- -- 41
2019-08-04 23:00:00 23.6 2 Sudoeste 8 Sudoeste 0 -- -- 34
2019-08-04 22:00:00 26.3 2 Noroeste 23 Oeste 0 -- -- 28
2019-08-04 21:00:00 29.2 13 Sudoeste 26 Sudoeste 0 -- -- 25
2019-08-04 20:00:00 31 12 Sudoeste 27 Sudoeste 0 -- -- 24
2019-08-04 19:00:00 31.8 12 Oeste 29 Sudoeste 0 -- -- 22
2019-08-04 18:00:00 32 11 Sudoeste 30 Oeste 0 -- -- 19
2019-08-04 17:00:00 31.8 14 Oeste 30 Oeste 0 -- -- 22
2019-08-04 16:00:00 31.7 12 Oeste 29 Sudoeste 0 -- -- 23
2019-08-04 15:00:00 30.7 6 Sudoeste 24 Oeste 0 -- -- 28
2019-08-04 14:00:00 29.4 6 Noroeste 20 Noroeste 0 -- -- 32
2019-08-04 13:00:00 27.8 6 Noroeste 14 Oeste 0 -- -- 37
2019-08-04 12:00:00 25.5 4 Norte 13 Noroeste 0 -- -- 47
2019-08-04 11:00:00 23.1 3 Norte 10 Noroeste 0 -- -- 53
2019-08-04 10:00:00 20.9 6 Noroeste 14 Noroeste 0 -- -- 62
2019-08-04 09:00:00 17.4 3 Sudeste 5 Sudeste 0 -- -- 68
2019-08-04 08:00:00 13.9 0 Calma 4 Sur 0 -- -- 76
2019-08-04 07:00:00 14.1 2 Sur 6 Sur 0 -- -- 73
2019-08-04 06:00:00 15.3 4 Sur 7 Sudeste 0 -- -- 68
2019-08-04 05:00:00 16.2 3 Sur 10 Sudoeste 0 -- -- 64
2019-08-04 04:00:00 16.8 4 Sur 8 Sudoeste 0 -- -- 60
2019-08-04 03:00:00 18.7 4 Sudoeste 7 Sudoeste 0 -- -- 53
2019-08-04 02:00:00 19.7 3 Sur 11 Sudoeste 0 -- -- 49
2019-08-04 01:00:00 20.9 5 Sudoeste 10 Sudoeste 0 -- -- 43
2019-08-04 00:00:00 23.5 6 Sudoeste 16 Sudoeste 0 -- -- 34
2019-08-03 23:00:00 23.8 5 Sudoeste 12 Sudoeste 0 -- -- 31
2019-08-03 22:00:00 27 6 Oeste 14 Oeste 0 -- -- 27
2019-08-03 21:00:00 29.6 6 Sudoeste 22 Oeste 0 -- -- 22
2019-08-03 20:00:00 31.3 8 Noroeste 28 Oeste 0 -- -- 23
2019-08-03 19:00:00 31.8 13 Oeste 26 Oeste 0 -- -- 24
2019-08-03 18:00:00 32.5 8 Oeste 27 Oeste 0 -- -- 19
2019-08-03 17:00:00 32.4 13 Oeste 34 Noroeste 0 -- -- 14
2019-08-03 16:00:00 31.9 15 Oeste 36 Oeste 0 -- -- 17
2019-08-03 15:00:00 31.4 15 Oeste 31 Oeste 0 -- -- 18
2019-08-03 14:00:00 31.2 15 Oeste 28 Sudoeste 0 -- -- 17
2019-08-03 13:00:00 30.5 10 Sudoeste 28 Oeste 0 -- -- 19
2019-08-03 12:00:00 28.2 7 Noroeste 15 Noroeste 0 -- -- 29
2019-08-03 11:00:00 25 4 Noroeste 10 Noroeste 0 -- -- 38
2019-08-03 10:00:00 22.2 4 Noroeste 10 Oeste 0 -- -- 46
2019-08-03 09:00:00 17.6 2 Sudeste 6 Sudeste 0 -- -- 49
2019-08-03 08:00:00 13.7 2 Sudeste 6 Sudeste 0 -- -- 58
2019-08-03 07:00:00 13.5 0 Calma 5 Sur 0 -- -- 57
2019-08-03 06:00:00 15.6 4 Sur 7 Sur 0 -- -- 50
2019-08-03 05:00:00 15.8 3 Sur 8 Sur 0 -- -- 48
2019-08-03 04:00:00 16.1 4 Sur 8 Sur 0 -- -- 45
2019-08-03 03:00:00 16.8 3 Sur 7 Sur 0 -- -- 43
2019-08-03 02:00:00 17.4 3 Sur 6 Sur 0 -- -- 42
2019-08-03 01:00:00 19.3 4 Sur 10 Sur 0 -- -- 40
2019-08-03 00:00:00 20 3 Sur 12 Sudoeste 0 -- -- 39
2019-08-02 23:00:00 20.2 5 Sur 6 Sur 0 -- -- 40
2019-08-02 22:00:00 24.9 0 Calma 8 Norte 0 -- -- 31
2019-08-02 21:00:00 28.1 7 Norte 19 Norte 0 -- -- 25
2019-08-02 20:00:00 30.1 13 Norte 22 Norte 0 -- -- 22
2019-08-02 19:00:00 30.9 10 Norte 23 Noroeste 0 -- -- 22
2019-08-02 18:00:00 31.1 9 Norte 22 Norte 0 -- -- 22
2019-08-02 17:00:00 31.5 7 Noroeste 22 Noroeste 0 -- -- 21
2019-08-02 16:00:00 30.4 4 Nordeste 21 Oeste 0 -- -- 24
2019-08-02 15:00:00 29.8 4 Oeste 16 Noroeste 0 -- -- 26
2019-08-02 14:00:00 28.7 10 Norte 21 Norte 0 -- -- 29
2019-08-02 13:00:00 26.6 9 Norte 18 Norte 0 -- -- 36
2019-08-02 12:00:00 24.2 10 Norte 18 Norte 0 -- -- 41
2019-08-02 11:00:00 21.3 5 Norte 13 Norte 0 -- -- 46
2019-08-02 10:00:00 18.7 5 Norte 9 Norte 0 -- -- 54
2019-08-02 09:00:00 14 0 Calma 2 Norte 0 -- -- 70
2019-08-02 08:00:00 11.4 0 Calma 5 Sur 0 -- -- 75
2019-08-02 07:00:00 11.2 3 Sur 5 Sur 0 -- -- 72
2019-08-02 06:00:00 13.2 0 Calma 6 Sur 0 -- -- 65
2019-08-02 05:00:00 14.2 3 Sur 5 Sudeste 0 -- -- 61
2019-08-02 04:00:00 15 3 Sur 10 Sur 0 -- -- 57
2019-08-02 03:00:00 16.1 5 Sur 8 Sur 0 -- -- 53
2019-08-02 02:00:00 16.1 4 Sur 10 Sudeste 0 -- -- 49
2019-08-02 01:00:00 16.2 3 Sur 6 Sudeste 0 -- -- 47
2019-08-02 00:00:00 17.6 4 Sur 7 Sur 0 -- -- 44
2019-08-01 23:00:00 20.1 3 Sur 6 Noroeste 0 -- -- 38
2019-08-01 22:00:00 24.7 4 Noroeste 17 Norte 0 -- -- 29
2019-08-01 21:00:00 27.6 9 Noroeste 19 Noroeste 0 -- -- 24
2019-08-01 20:00:00 29.5 4 Noroeste 22 Noroeste 0 -- -- 22
2019-08-01 19:00:00 30.2 10 Oeste 23 Noroeste 0 -- -- 22
2019-08-01 18:00:00 29.8 9 Noroeste 25 Noroeste 0 -- -- 23
2019-08-01 17:00:00 29.9 9 Noroeste 24 Noroeste 0 -- -- 24
2019-08-01 16:00:00 29.3 12 Noroeste 25 Norte 0 -- -- 26
2019-08-01 15:00:00 27.9 7 Sudeste 19 Noroeste 0 -- -- 29
2019-08-01 14:00:00 27.4 7 Oeste 20 Noroeste 0 -- -- 29
2019-08-01 13:00:00 25.9 7 Noroeste 17 Norte 0 -- -- 35
2019-08-01 12:00:00 24.2 9 Noroeste 15 Noroeste 0 -- -- 40
2019-08-01 11:00:00 21.6 6 Oeste 15 Noroeste 0 -- -- 47
2019-08-01 10:00:00 18.9 5 Oeste 12 Oeste 0 -- -- 54
2019-08-01 09:00:00 14.8 0 Calma 6 Noroeste 0 -- -- 71
2019-08-01 08:00:00 11.5 3 Sur 8 Sur 0 -- -- 78
2019-08-01 07:00:00 11.3 3 Sur 4 Sur 0 -- -- 76
2019-08-01 06:00:00 12.4 0 Calma 5 Sudoeste 0 -- -- 72
2019-08-01 05:00:00 14.2 0 Calma 6 Sur 0 -- -- 65
2019-08-01 04:00:00 15.9 0 Calma 9 Oeste 0 -- -- 60
2019-08-01 03:00:00 17.3 3 Sudoeste 6 Sur 0 -- -- 56
2019-08-01 02:00:00 18.8 2 Norte 6 Norte 0 -- -- 55
2019-08-01 01:00:00 19.4 0 Calma 8 Noroeste 0 -- -- 51
2019-08-01 00:00:00 19.8 0 Calma 4 Sudeste 0 -- -- 50
2019-07-31 23:00:00 22.2 2 Noroeste 6 Norte 0 -- -- 41
2019-07-31 22:00:00 23.6 5 Nordeste 14 Norte 0 -- -- 37
2019-07-31 21:00:00 26.3 6 Norte 13 Este 0 -- -- 34
2019-07-31 20:00:00 27.6 2 Nordeste 10 Nordeste 0 -- -- 30
2019-07-31 19:00:00 27.9 5 Norte 15 Norte 0 -- -- 30
2019-07-31 18:00:00 28.5 8 Norte 23 Norte 0 -- -- 31
2019-07-31 17:00:00 28.4 8 Norte 21 Noroeste 0 -- -- 32
2019-07-31 16:00:00 27.6 10 Norte 24 Norte 0 -- -- 33
2019-07-31 15:00:00 26.4 11 Norte 23 Norte 0 -- -- 36
2019-07-31 14:00:00 24.9 14 Norte 25 Norte 0 -- -- 38
2019-07-31 13:00:00 23.4 15 Norte 27 Norte 0 -- -- 41
2019-07-31 12:00:00 21.5 11 Nordeste 22 Nordeste 0 -- -- 45
2019-07-31 11:00:00 18.9 11 Norte 20 Norte 0 -- -- 49
2019-07-31 10:00:00 15.9 10 Norte 18 Norte 0 -- -- 57
2019-07-31 09:00:00 12.8 8 Nordeste 14 Nordeste 0 -- -- 68
2019-07-31 08:00:00 10.3 4 Nordeste 8 Nordeste 0 -- -- 76
2019-07-31 07:00:00 10.9 3 Nordeste 12 Norte 0 -- -- 70
2019-07-31 06:00:00 11 4 Norte 8 Norte 0 -- -- 66
2019-07-31 05:00:00 11.5 4 Norte 8 Norte 0 -- -- 58
2019-07-31 04:00:00 12.5 5 Nordeste 14 Nordeste 0 -- -- 53
2019-07-31 03:00:00 12.7 3 Nordeste 8 Nordeste 0 -- -- 53
2019-07-31 02:00:00 12.6 5 Norte 10 Norte 0 -- -- 55
2019-07-31 01:00:00 13.6 0 Calma 3 Sudeste 0 -- -- 51
2019-07-31 00:00:00 14.8 0 Calma 5 Sudeste 0 -- -- 45
2019-07-30 23:00:00 16.2 3 Sur 6 Sur 0 -- -- 41
2019-07-30 22:00:00 19.8 4 Norte 16 Norte 0 -- -- 32
2019-07-30 21:00:00 22.5 11 Norte 21 Norte 0 -- -- 27
2019-07-30 20:00:00 23.1 11 Nordeste 27 Norte 0 -- -- 26
2019-07-30 19:00:00 24 11 Norte 25 Norte 0 -- -- 25
2019-07-30 18:00:00 24.1 12 Norte 27 Norte 0 -- -- 24
2019-07-30 17:00:00 23.4 13 Norte 26 Norte 0 -- -- 26
2019-07-30 16:00:00 22.6 11 Norte 26 Norte 0 -- -- 29
2019-07-30 15:00:00 21.1 14 Norte 27 Nordeste 0 -- -- 32
2019-07-30 14:00:00 20.2 13 Nordeste 28 Norte 0 -- -- 35
2019-07-30 13:00:00 18.4 12 Nordeste 23 Nordeste 0 -- -- 39
2019-07-30 12:00:00 17 11 Nordeste 23 Nordeste 0 -- -- 45
2019-07-30 11:00:00 15.6 10 Nordeste 21 Nordeste 0 -- -- 50
2019-07-30 10:00:00 14 13 Nordeste 21 Norte 0 -- -- 56
2019-07-30 09:00:00 11.2 6 Este 13 Sudeste 0 -- -- 71
2019-07-30 08:00:00 6.8 3 Sur 5 Sur 0 -- -- 89
2019-07-30 07:00:00 6.5 2 Sur 3 Sur 0 -- -- 85
2019-07-30 06:00:00 7.4 2 Sur 4 Sudeste 0 -- -- 82
2019-07-30 05:00:00 8.4 0 Calma 5 Sudeste 0 -- -- 77
2019-07-30 04:00:00 9.4 0 Calma 5 Noroeste 0 -- -- 74
2019-07-30 03:00:00 10.7 2 Sudoeste 4 Oeste 0 -- -- 67
2019-07-30 02:00:00 11.7 0 Calma 9 Noroeste 0 -- -- 63
2019-07-30 01:00:00 14.3 2 Noroeste 10 Oeste 0 -- -- 54
2019-07-30 00:00:00 17 5 Oeste 14 Oeste 0 -- -- 46
2019-07-29 23:00:00 18.2 5 Oeste 15 Oeste 0 -- -- 38
2019-07-29 22:00:00 19.6 8 Noroeste 25 Noroeste 0 -- -- 35
2019-07-29 21:00:00 21.7 13 Noroeste 28 Noroeste 0 -- -- 31
2019-07-29 20:00:00 23.9 13 Noroeste 34 Oeste 0 -- -- 28
2019-07-29 19:00:00 24.9 14 Noroeste 30 Oeste 0 -- -- 23
2019-07-29 18:00:00 25.5 17 Noroeste 35 Oeste 0 -- -- 27
2019-07-29 17:00:00 25.3 17 Oeste 35 Oeste 0 -- -- 27
2019-07-29 16:00:00 25.3 15 Noroeste 33 Noroeste 0 -- -- 32
2019-07-29 15:00:00 24.4 14 Oeste 29 Noroeste 0 -- -- 41
2019-07-29 14:00:00 23.1 11 Noroeste 28 Noroeste 0 -- -- 48
2019-07-29 13:00:00 22 9 Noroeste 20 Sudoeste 0 -- -- 53
2019-07-29 12:00:00 21 9 Oeste 17 Noroeste 0 -- -- 48
2019-07-29 11:00:00 19.8 6 Noroeste 15 Oeste 0 -- -- 47
2019-07-29 10:00:00 17.7 8 Oeste 16 Oeste 0 -- -- 48
2019-07-29 09:00:00 14.7 5 Noroeste 13 Noroeste 0 -- -- 61
2019-07-29 08:00:00 10.8 0 Calma 5 Sur 0 -- -- 85
2019-07-29 07:00:00 11 3 Sur 6 Oeste 0 -- -- 82
2019-07-29 06:00:00 13.1 2 Sur 10 Sudoeste 0 -- -- 75
2019-07-29 05:00:00 15 5 Sur 11 Sudoeste 0 -- -- 70
2019-07-29 04:00:00 15.3 4 Sudoeste 10 Sudoeste 0 -- -- 65
2019-07-29 03:00:00 14.7 4 Sudoeste 7 Sudoeste 0 -- -- 56
2019-07-29 02:00:00 17.1 6 Sudoeste 12 Oeste 0 -- -- 47
2019-07-29 01:00:00 16.3 5 Sur 8 Sur 0 -- -- 46
2019-07-29 00:00:00 16.3 4 Sur 6 Sur 0 -- -- 47
2019-07-28 23:00:00 17.6 2 Sur 6 Sur 0 -- -- 44
2019-07-28 22:00:00 22.8 3 Oeste 5 Oeste 0 -- -- 35
2019-07-28 21:00:00 25.2 3 Norte 15 Norte 0 -- -- 28
2019-07-28 20:00:00 26.4 6 Norte 20 Norte 0 -- -- 27
2019-07-28 19:00:00 26.9 11 Norte 23 Norte 0 -- -- 27
2019-07-28 18:00:00 26.9 9 Norte 22 Noroeste 0 -- -- 30
2019-07-28 17:00:00 26.4 8 Oeste 23 Oeste 0 -- -- 30
2019-07-28 16:00:00 25.5 5 Norte 19 Noroeste 0 -- -- 31
2019-07-28 15:00:00 24.8 8 Noroeste 26 Norte 0 -- -- 32
2019-07-28 14:00:00 23.8 7 Noroeste 18 Norte 0 -- -- 37
2019-07-28 13:00:00 22.7 10 Norte 22 Noroeste 0 -- -- 40
2019-07-28 12:00:00 21.6 8 Nordeste 22 Nordeste 0 -- -- 43
2019-07-28 11:00:00 19.9 10 Nordeste 17 Nordeste 0 -- -- 46
2019-07-28 10:00:00 17 9 Nordeste 15 Nordeste 0 -- -- 57
2019-07-28 09:00:00 12.5 3 Norte 7 Norte 0 -- -- 81
2019-07-28 08:00:00 10 0 Calma 4 Norte 0 -- -- 89
2019-07-28 07:00:00 10.3 0 Calma 8 Norte 0 -- -- 85
2019-07-28 06:00:00 11.2 3 Este 12 Nordeste 0 -- -- 83
2019-07-28 05:00:00 12 4 Nordeste 11 Nordeste 0 -- -- 81
2019-07-28 04:00:00 12.9 7 Nordeste 15 Este 0 -- -- 78
2019-07-28 03:00:00 14.3 9 Nordeste 22 Nordeste 0 -- -- 74
2019-07-28 02:00:00 15.2 9 Nordeste 19 Nordeste 0 -- -- 72
2019-07-28 01:00:00 16 8 Nordeste 21 Nordeste 0 -- -- 71
2019-07-28 00:00:00 16.9 9 Nordeste 18 Este 0 -- -- 67
2019-07-27 23:00:00 17.9 0 Calma 14 Noroeste 0 -- -- 58
2019-07-26 12:00:00 -- -- -- -- -- -- -- -- --
2019-07-26 11:00:00 -- -- -- -- -- -- -- -- --
2019-07-26 10:00:00 -- -- -- -- -- -- -- -- --
2019-07-26 09:00:00 16 6 Oeste 15 Oeste 0 -- -- 75
2019-07-26 08:00:00 16.4 7 Noroeste 15 Oeste 0 -- -- 74
2019-07-26 07:00:00 16.6 8 Noroeste 18 Noroeste 0 -- -- 75
2019-07-26 06:00:00 17.6 9 Norte 14 Norte 0 -- -- 79
2019-07-26 05:00:00 18.3 4 Noroeste 14 Noroeste 0 -- -- 78
2019-07-26 04:00:00 18.6 7 Noroeste 17 Oeste 0 -- -- 77
2019-07-26 03:00:00 18.8 8 Noroeste 18 Oeste 0 -- -- 77
2019-07-26 02:00:00 19.6 4 Oeste 19 Noroeste 0 -- -- 73
2019-07-26 01:00:00 20.7 9 Noroeste 22 Noroeste 0 -- -- 70
2019-07-26 00:00:00 22.4 4 Noroeste 8 Noroeste 0 -- -- 57